sensor_id;sensor_type;location;lat;lon;timestamp;P1;durP1;ratioP1;P2;durP2;ratioP2
23258;SDS011;11798;51.528;7.240;2023-02-28T00:00:16;7.13;;;3.77;;
23258;SDS011;11798;51.528;7.240;2023-02-28T00:02:43;8.40;;;3.70;;
23258;SDS011;11798;51.528;7.240;2023-02-28T00:05:10;5.20;;;3.07;;
23258;SDS011;11798;51.528;7.240;2023-02-28T00:07:37;5.43;;;4.00;;
23258;SDS011;11798;51.528;7.240;2023-02-28T00:10:05;8.27;;;3.67;;
23258;SDS011;11798;51.528;7.240;2023-02-28T00:12:32;6.63;;;3.50;;
23258;SDS011;11798;51.528;7.240;2023-02-28T00:14:59;5.37;;;3.07;;
23258;SDS011;11798;51.528;7.240;2023-02-28T00:19:52;7.27;;;3.67;;
23258;SDS011;11798;51.528;7.240;2023-02-28T00:22:18;4.50;;;3.07;;
23258;SDS011;11798;51.528;7.240;2023-02-28T00:24:45;6.33;;;3.70;;
23258;SDS011;11798;51.528;7.240;2023-02-28T00:27:12;5.50;;;2.93;;
23258;SDS011;11798;51.528;7.240;2023-02-28T00:29:38;7.10;;;3.67;;
23258;SDS011;11798;51.528;7.240;2023-02-28T00:32:04;4.50;;;3.17;;
23258;SDS011;11798;51.528;7.240;2023-02-28T00:34:30;4.97;;;3.40;;
23258;SDS011;11798;51.528;7.240;2023-02-28T00:37:06;5.63;;;3.23;;
23258;SDS011;11798;51.528;7.240;2023-02-28T00:39:35;6.17;;;3.60;;
23258;SDS011;11798;51.528;7.240;2023-02-28T00:42:04;5.30;;;3.37;;
23258;SDS011;11798;51.528;7.240;2023-02-28T00:44:30;5.77;;;3.60;;
23258;SDS011;11798;51.528;7.240;2023-02-28T00:46:56;6.97;;;3.80;;
23258;SDS011;11798;51.528;7.240;2023-02-28T00:49:23;4.53;;;2.83;;
23258;SDS011;11798;51.528;7.240;2023-02-28T00:51:49;5.07;;;3.40;;
23258;SDS011;11798;51.528;7.240;2023-02-28T00:54:15;5.37;;;3.13;;
23258;SDS011;11798;51.528;7.240;2023-02-28T00:56:42;6.30;;;3.27;;
23258;SDS011;11798;51.528;7.240;2023-02-28T00:59:08;4.77;;;3.10;;
23258;SDS011;11798;51.528;7.240;2023-02-28T01:01:37;4.53;;;2.97;;
23258;SDS011;11798;51.528;7.240;2023-02-28T01:04:02;5.40;;;3.40;;
23258;SDS011;11798;51.528;7.240;2023-02-28T01:06:28;4.70;;;3.23;;
23258;SDS011;11798;51.528;7.240;2023-02-28T01:08:54;4.80;;;3.17;;
23258;SDS011;11798;51.528;7.240;2023-02-28T01:11:19;5.83;;;3.40;;
23258;SDS011;11798;51.528;7.240;2023-02-28T01:13:46;6.73;;;3.77;;
23258;SDS011;11798;51.528;7.240;2023-02-28T01:16:11;6.47;;;3.07;;
23258;SDS011;11798;51.528;7.240;2023-02-28T01:18:37;7.57;;;3.97;;
23258;SDS011;11798;51.528;7.240;2023-02-28T01:21:04;6.03;;;3.13;;
23258;SDS011;11798;51.528;7.240;2023-02-28T01:23:31;4.90;;;3.07;;
23258;SDS011;11798;51.528;7.240;2023-02-28T01:25:57;5.53;;;3.57;;
23258;SDS011;11798;51.528;7.240;2023-02-28T01:28:29;4.97;;;3.27;;
23258;SDS011;11798;51.528;7.240;2023-02-28T01:30:55;4.53;;;3.37;;
23258;SDS011;11798;51.528;7.240;2023-02-28T01:33:20;5.63;;;3.53;;
23258;SDS011;11798;51.528;7.240;2023-02-28T01:35:46;5.10;;;3.37;;
23258;SDS011;11798;51.528;7.240;2023-02-28T01:38:12;6.63;;;3.20;;
23258;SDS011;11798;51.528;7.240;2023-02-28T01:40:37;8.07;;;3.97;;
23258;SDS011;11798;51.528;7.240;2023-02-28T01:43:04;5.73;;;3.40;;
23258;SDS011;11798;51.528;7.240;2023-02-28T01:45:42;4.77;;;2.93;;
23258;SDS011;11798;51.528;7.240;2023-02-28T01:48:07;5.77;;;3.20;;
23258;SDS011;11798;51.528;7.240;2023-02-28T01:50:35;4.87;;;3.37;;
23258;SDS011;11798;51.528;7.240;2023-02-28T01:53:04;4.67;;;3.33;;
23258;SDS011;11798;51.528;7.240;2023-02-28T01:55:33;5.77;;;3.40;;
23258;SDS011;11798;51.528;7.240;2023-02-28T01:58:00;5.27;;;3.87;;
23258;SDS011;11798;51.528;7.240;2023-02-28T02:00:29;8.10;;;4.00;;
23258;SDS011;11798;51.528;7.240;2023-02-28T02:02:59;6.87;;;3.53;;
23258;SDS011;11798;51.528;7.240;2023-02-28T02:05:31;3.93;;;3.30;;
23258;SDS011;11798;51.528;7.240;2023-02-28T02:07:58;5.97;;;3.33;;
23258;SDS011;11798;51.528;7.240;2023-02-28T02:10:35;7.23;;;3.83;;
23258;SDS011;11798;51.528;7.240;2023-02-28T02:18:54;6.37;;;3.83;;
23258;SDS011;11798;51.528;7.240;2023-02-28T02:41:31;4.67;;;3.50;;
23258;SDS011;11798;51.528;7.240;2023-02-28T02:46:17;4.07;;;3.40;;
23258;SDS011;11798;51.528;7.240;2023-02-28T02:48:47;7.90;;;3.90;;
23258;SDS011;11798;51.528;7.240;2023-02-28T02:51:16;6.23;;;3.60;;
23258;SDS011;11798;51.528;7.240;2023-02-28T02:53:55;5.70;;;3.37;;
23258;SDS011;11798;51.528;7.240;2023-02-28T02:56:26;4.97;;;3.33;;
23258;SDS011;11798;51.528;7.240;2023-02-28T02:58:54;4.93;;;3.13;;
23258;SDS011;11798;51.528;7.240;2023-02-28T03:01:25;5.50;;;3.43;;
23258;SDS011;11798;51.528;7.240;2023-02-28T03:03:54;6.17;;;3.27;;
23258;SDS011;11798;51.528;7.240;2023-02-28T03:06:22;8.07;;;3.80;;
23258;SDS011;11798;51.528;7.240;2023-02-28T03:08:48;7.20;;;3.63;;
23258;SDS011;11798;51.528;7.240;2023-02-28T03:11:14;5.53;;;3.87;;
23258;SDS011;11798;51.528;7.240;2023-02-28T03:16:33;6.33;;;3.33;;
23258;SDS011;11798;51.528;7.240;2023-02-28T03:22:17;5.57;;;3.50;;
23258;SDS011;11798;51.528;7.240;2023-02-28T03:25:14;6.57;;;3.17;;
23258;SDS011;11798;51.528;7.240;2023-02-28T03:27:46;7.43;;;3.47;;
23258;SDS011;11798;51.528;7.240;2023-02-28T03:32:42;5.93;;;3.47;;
23258;SDS011;11798;51.528;7.240;2023-02-28T03:35:23;3.97;;;3.40;;
23258;SDS011;11798;51.528;7.240;2023-02-28T03:38:00;4.83;;;2.93;;
23258;SDS011;11798;51.528;7.240;2023-02-28T03:40:33;6.10;;;3.73;;
23258;SDS011;11798;51.528;7.240;2023-02-28T03:43:03;5.93;;;3.20;;
23258;SDS011;11798;51.528;7.240;2023-02-28T03:45:35;7.53;;;3.67;;
23258;SDS011;11798;51.528;7.240;2023-02-28T03:48:23;3.90;;;3.37;;
23258;SDS011;11798;51.528;7.240;2023-02-28T03:50:57;7.07;;;3.67;;
23258;SDS011;11798;51.528;7.240;2023-02-28T03:53:26;12.67;;;7.43;;
23258;SDS011;11798;51.528;7.240;2023-02-28T03:58:53;4.70;;;3.57;;
23258;SDS011;11798;51.528;7.240;2023-02-28T04:01:25;6.33;;;2.87;;
23258;SDS011;11798;51.528;7.240;2023-02-28T04:03:57;10.33;;;4.40;;
23258;SDS011;11798;51.528;7.240;2023-02-28T04:06:23;6.80;;;3.93;;
23258;SDS011;11798;51.528;7.240;2023-02-28T04:08:49;8.07;;;3.80;;
23258;SDS011;11798;51.528;7.240;2023-02-28T04:13:44;6.93;;;4.00;;
23258;SDS011;11798;51.528;7.240;2023-02-28T04:16:10;7.57;;;4.23;;
23258;SDS011;11798;51.528;7.240;2023-02-28T04:18:40;8.83;;;4.07;;
23258;SDS011;11798;51.528;7.240;2023-02-28T04:21:07;5.20;;;3.97;;
23258;SDS011;11798;51.528;7.240;2023-02-28T04:23:34;7.13;;;4.13;;
23258;SDS011;11798;51.528;7.240;2023-02-28T04:26:00;6.07;;;3.53;;
23258;SDS011;11798;51.528;7.240;2023-02-28T04:28:25;5.87;;;3.63;;
23258;SDS011;11798;51.528;7.240;2023-02-28T04:30:55;7.43;;;3.53;;
23258;SDS011;11798;51.528;7.240;2023-02-28T04:33:31;5.70;;;3.37;;
23258;SDS011;11798;51.528;7.240;2023-02-28T04:35:58;4.93;;;3.50;;
23258;SDS011;11798;51.528;7.240;2023-02-28T04:38:24;6.67;;;3.23;;
23258;SDS011;11798;51.528;7.240;2023-02-28T04:40:50;4.97;;;3.57;;
23258;SDS011;11798;51.528;7.240;2023-02-28T04:43:16;5.80;;;3.90;;
23258;SDS011;11798;51.528;7.240;2023-02-28T04:45:42;11.43;;;5.30;;
23258;SDS011;11798;51.528;7.240;2023-02-28T04:48:07;6.77;;;4.60;;
23258;SDS011;11798;51.528;7.240;2023-02-28T04:50:33;8.70;;;4.40;;
23258;SDS011;11798;51.528;7.240;2023-02-28T04:52:59;5.07;;;3.33;;
23258;SDS011;11798;51.528;7.240;2023-02-28T04:55:24;6.43;;;3.70;;
23258;SDS011;11798;51.528;7.240;2023-02-28T04:57:50;5.27;;;3.20;;
23258;SDS011;11798;51.528;7.240;2023-02-28T05:00:16;6.90;;;3.30;;
23258;SDS011;11798;51.528;7.240;2023-02-28T05:02:42;6.53;;;3.10;;
23258;SDS011;11798;51.528;7.240;2023-02-28T05:05:07;6.07;;;3.23;;
23258;SDS011;11798;51.528;7.240;2023-02-28T05:07:33;3.60;;;3.10;;
23258;SDS011;11798;51.528;7.240;2023-02-28T05:09:59;5.53;;;3.23;;
23258;SDS011;11798;51.528;7.240;2023-02-28T05:12:25;4.83;;;3.50;;
23258;SDS011;11798;51.528;7.240;2023-02-28T05:14:50;7.17;;;4.43;;
23258;SDS011;11798;51.528;7.240;2023-02-28T05:17:16;5.53;;;3.57;;
23258;SDS011;11798;51.528;7.240;2023-02-28T05:19:41;5.00;;;3.37;;
23258;SDS011;11798;51.528;7.240;2023-02-28T05:22:13;8.07;;;3.73;;
23258;SDS011;11798;51.528;7.240;2023-02-28T05:24:41;7.50;;;3.90;;
23258;SDS011;11798;51.528;7.240;2023-02-28T05:27:07;4.40;;;3.70;;
23258;SDS011;11798;51.528;7.240;2023-02-28T05:29:33;6.50;;;3.57;;
23258;SDS011;11798;51.528;7.240;2023-02-28T05:31:59;4.60;;;3.40;;
23258;SDS011;11798;51.528;7.240;2023-02-28T05:34:24;4.63;;;3.60;;
23258;SDS011;11798;51.528;7.240;2023-02-28T05:36:50;6.83;;;4.30;;
23258;SDS011;11798;51.528;7.240;2023-02-28T05:39:16;14.73;;;4.10;;
23258;SDS011;11798;51.528;7.240;2023-02-28T05:41:41;4.67;;;3.80;;
23258;SDS011;11798;51.528;7.240;2023-02-28T05:44:08;6.93;;;3.33;;
23258;SDS011;11798;51.528;7.240;2023-02-28T05:46:34;5.90;;;3.70;;
23258;SDS011;11798;51.528;7.240;2023-02-28T05:49:00;4.67;;;3.63;;
23258;SDS011;11798;51.528;7.240;2023-02-28T05:51:26;10.17;;;3.80;;
23258;SDS011;11798;51.528;7.240;2023-02-28T05:53:52;5.93;;;3.77;;
23258;SDS011;11798;51.528;7.240;2023-02-28T05:56:18;9.27;;;4.07;;
23258;SDS011;11798;51.528;7.240;2023-02-28T05:58:43;5.13;;;3.50;;
23258;SDS011;11798;51.528;7.240;2023-02-28T06:01:19;5.27;;;3.83;;
23258;SDS011;11798;51.528;7.240;2023-02-28T06:04:02;6.77;;;3.60;;
23258;SDS011;11798;51.528;7.240;2023-02-28T06:06:29;9.33;;;3.30;;
23258;SDS011;11798;51.528;7.240;2023-02-28T06:08:55;5.63;;;4.37;;
23258;SDS011;11798;51.528;7.240;2023-02-28T06:11:21;8.10;;;4.40;;
23258;SDS011;11798;51.528;7.240;2023-02-28T06:13:53;5.57;;;3.80;;
23258;SDS011;11798;51.528;7.240;2023-02-28T06:16:20;7.37;;;4.67;;
23258;SDS011;11798;51.528;7.240;2023-02-28T06:18:46;16.50;;;8.83;;
23258;SDS011;11798;51.528;7.240;2023-02-28T06:21:12;6.93;;;4.50;;
23258;SDS011;11798;51.528;7.240;2023-02-28T06:23:38;6.50;;;4.30;;
23258;SDS011;11798;51.528;7.240;2023-02-28T06:26:04;6.17;;;4.67;;
23258;SDS011;11798;51.528;7.240;2023-02-28T06:28:30;6.60;;;4.00;;
23258;SDS011;11798;51.528;7.240;2023-02-28T06:30:56;8.17;;;4.17;;
23258;SDS011;11798;51.528;7.240;2023-02-28T06:33:22;13.57;;;4.47;;
23258;SDS011;11798;51.528;7.240;2023-02-28T06:35:51;5.57;;;3.70;;
23258;SDS011;11798;51.528;7.240;2023-02-28T06:38:17;5.50;;;3.93;;
23258;SDS011;11798;51.528;7.240;2023-02-28T06:40:43;7.03;;;3.87;;
23258;SDS011;11798;51.528;7.240;2023-02-28T06:43:09;10.57;;;4.10;;
23258;SDS011;11798;51.528;7.240;2023-02-28T06:45:41;7.83;;;4.27;;
23258;SDS011;11798;51.528;7.240;2023-02-28T06:48:08;7.53;;;4.13;;
23258;SDS011;11798;51.528;7.240;2023-02-28T06:50:33;6.13;;;4.00;;
23258;SDS011;11798;51.528;7.240;2023-02-28T06:52:59;6.43;;;4.13;;
23258;SDS011;11798;51.528;7.240;2023-02-28T06:55:25;11.50;;;4.17;;
23258;SDS011;11798;51.528;7.240;2023-02-28T06:57:51;10.83;;;4.30;;
23258;SDS011;11798;51.528;7.240;2023-02-28T07:00:16;4.93;;;4.30;;
23258;SDS011;11798;51.528;7.240;2023-02-28T07:02:42;7.73;;;4.70;;
23258;SDS011;11798;51.528;7.240;2023-02-28T07:05:08;7.13;;;4.77;;
23258;SDS011;11798;51.528;7.240;2023-02-28T07:07:34;7.30;;;4.67;;
23258;SDS011;11798;51.528;7.240;2023-02-28T07:10:01;7.37;;;4.60;;
23258;SDS011;11798;51.528;7.240;2023-02-28T07:12:27;9.83;;;4.70;;
23258;SDS011;11798;51.528;7.240;2023-02-28T07:14:52;6.83;;;4.33;;
23258;SDS011;11798;51.528;7.240;2023-02-28T07:17:20;7.10;;;4.60;;
23258;SDS011;11798;51.528;7.240;2023-02-28T07:19:46;6.53;;;4.40;;
23258;SDS011;11798;51.528;7.240;2023-02-28T07:22:12;7.60;;;4.50;;
23258;SDS011;11798;51.528;7.240;2023-02-28T07:24:37;6.47;;;4.40;;
23258;SDS011;11798;51.528;7.240;2023-02-28T07:27:03;9.47;;;4.40;;
23258;SDS011;11798;51.528;7.240;2023-02-28T07:29:29;8.77;;;5.63;;
23258;SDS011;11798;51.528;7.240;2023-02-28T07:31:55;7.47;;;5.13;;
23258;SDS011;11798;51.528;7.240;2023-02-28T07:34:20;8.63;;;4.73;;
23258;SDS011;11798;51.528;7.240;2023-02-28T07:36:47;6.63;;;3.93;;
23258;SDS011;11798;51.528;7.240;2023-02-28T07:39:12;8.37;;;4.70;;
23258;SDS011;11798;51.528;7.240;2023-02-28T07:41:38;6.57;;;5.13;;
23258;SDS011;11798;51.528;7.240;2023-02-28T07:44:09;8.17;;;5.00;;
23258;SDS011;11798;51.528;7.240;2023-02-28T07:46:35;9.47;;;4.87;;
23258;SDS011;11798;51.528;7.240;2023-02-28T07:49:01;6.40;;;4.93;;
23258;SDS011;11798;51.528;7.240;2023-02-28T07:51:28;8.50;;;5.00;;
23258;SDS011;11798;51.528;7.240;2023-02-28T07:53:55;7.53;;;5.33;;
23258;SDS011;11798;51.528;7.240;2023-02-28T07:56:20;9.73;;;5.23;;
23258;SDS011;11798;51.528;7.240;2023-02-28T07:58:46;10.10;;;7.07;;
23258;SDS011;11798;51.528;7.240;2023-02-28T08:01:12;14.17;;;7.47;;
23258;SDS011;11798;51.528;7.240;2023-02-28T08:03:38;9.30;;;6.30;;
23258;SDS011;11798;51.528;7.240;2023-02-28T08:06:04;9.97;;;6.27;;
23258;SDS011;11798;51.528;7.240;2023-02-28T08:08:31;6.57;;;5.70;;
23258;SDS011;11798;51.528;7.240;2023-02-28T08:10:58;11.80;;;6.53;;
23258;SDS011;11798;51.528;7.240;2023-02-28T08:13:28;12.37;;;5.83;;
23258;SDS011;11798;51.528;7.240;2023-02-28T08:15:55;9.33;;;5.57;;
23258;SDS011;11798;51.528;7.240;2023-02-28T08:18:22;8.50;;;4.83;;
23258;SDS011;11798;51.528;7.240;2023-02-28T08:20:48;8.33;;;4.67;;
23258;SDS011;11798;51.528;7.240;2023-02-28T08:23:13;7.40;;;4.97;;
23258;SDS011;11798;51.528;7.240;2023-02-28T08:25:40;7.10;;;4.63;;
23258;SDS011;11798;51.528;7.240;2023-02-28T08:28:05;7.07;;;5.03;;
23258;SDS011;11798;51.528;7.240;2023-02-28T08:30:31;5.13;;;4.07;;
23258;SDS011;11798;51.528;7.240;2023-02-28T08:32:57;5.37;;;4.17;;
23258;SDS011;11798;51.528;7.240;2023-02-28T08:35:22;11.20;;;5.23;;
23258;SDS011;11798;51.528;7.240;2023-02-28T08:37:48;7.13;;;4.73;;
23258;SDS011;11798;51.528;7.240;2023-02-28T08:40:15;6.50;;;4.20;;
23258;SDS011;11798;51.528;7.240;2023-02-28T08:42:46;6.53;;;4.50;;
23258;SDS011;11798;51.528;7.240;2023-02-28T08:45:12;7.07;;;4.23;;
23258;SDS011;11798;51.528;7.240;2023-02-28T08:47:39;8.00;;;4.60;;
23258;SDS011;11798;51.528;7.240;2023-02-28T08:50:05;8.00;;;4.73;;
23258;SDS011;11798;51.528;7.240;2023-02-28T08:52:31;8.40;;;4.73;;
23258;SDS011;11798;51.528;7.240;2023-02-28T08:54:57;7.13;;;4.20;;
23258;SDS011;11798;51.528;7.240;2023-02-28T08:57:23;5.60;;;3.87;;
23258;SDS011;11798;51.528;7.240;2023-02-28T08:59:52;6.33;;;4.53;;
23258;SDS011;11798;51.528;7.240;2023-02-28T09:02:17;5.27;;;4.13;;
23258;SDS011;11798;51.528;7.240;2023-02-28T09:04:43;7.93;;;4.10;;
23258;SDS011;11798;51.528;7.240;2023-02-28T09:07:12;8.03;;;4.10;;
23258;SDS011;11798;51.528;7.240;2023-02-28T09:09:38;7.47;;;4.00;;
23258;SDS011;11798;51.528;7.240;2023-02-28T09:12:18;6.77;;;4.40;;
23258;SDS011;11798;51.528;7.240;2023-02-28T09:14:50;8.33;;;3.50;;
23258;SDS011;11798;51.528;7.240;2023-02-28T09:17:17;7.73;;;4.27;;
23258;SDS011;11798;51.528;7.240;2023-02-28T09:19:43;10.37;;;4.20;;
23258;SDS011;11798;51.528;7.240;2023-02-28T09:22:10;6.17;;;4.13;;
23258;SDS011;11798;51.528;7.240;2023-02-28T09:24:38;5.37;;;4.10;;
23258;SDS011;11798;51.528;7.240;2023-02-28T09:27:05;7.50;;;3.23;;
23258;SDS011;11798;51.528;7.240;2023-02-28T09:29:31;12.50;;;6.37;;
23258;SDS011;11798;51.528;7.240;2023-02-28T09:31:57;7.30;;;4.20;;
23258;SDS011;11798;51.528;7.240;2023-02-28T09:34:26;5.10;;;3.70;;
23258;SDS011;11798;51.528;7.240;2023-02-28T09:36:52;4.60;;;3.73;;
23258;SDS011;11798;51.528;7.240;2023-02-28T09:39:20;5.53;;;3.23;;
23258;SDS011;11798;51.528;7.240;2023-02-28T09:41:47;5.57;;;3.53;;
23258;SDS011;11798;51.528;7.240;2023-02-28T09:49:52;4.87;;;3.07;;
23258;SDS011;11798;51.528;7.240;2023-02-28T09:52:19;5.33;;;2.67;;
23258;SDS011;11798;51.528;7.240;2023-02-28T09:54:52;4.40;;;3.13;;
23258;SDS011;11798;51.528;7.240;2023-02-28T10:05:41;5.07;;;2.63;;
23258;SDS011;11798;51.528;7.240;2023-02-28T10:08:33;5.97;;;2.77;;
23258;SDS011;11798;51.528;7.240;2023-02-28T10:11:19;3.37;;;2.63;;
23258;SDS011;11798;51.528;7.240;2023-02-28T10:13:59;4.13;;;2.30;;
23258;SDS011;11798;51.528;7.240;2023-02-28T10:19:10;6.77;;;2.80;;
23258;SDS011;11798;51.528;7.240;2023-02-28T10:21:58;4.03;;;2.80;;
23258;SDS011;11798;51.528;7.240;2023-02-28T10:24:41;2.80;;;2.30;;
23258;SDS011;11798;51.528;7.240;2023-02-28T10:29:49;5.03;;;2.27;;
23258;SDS011;11798;51.528;7.240;2023-02-28T10:32:21;3.47;;;2.30;;
23258;SDS011;11798;51.528;7.240;2023-02-28T10:34:56;5.57;;;2.20;;
23258;SDS011;11798;51.528;7.240;2023-02-28T10:37:23;3.33;;;2.00;;
23258;SDS011;11798;51.528;7.240;2023-02-28T10:39:49;4.87;;;2.40;;
23258;SDS011;11798;51.528;7.240;2023-02-28T10:42:23;3.73;;;2.17;;
23258;SDS011;11798;51.528;7.240;2023-02-28T10:48:03;4.80;;;2.17;;
23258;SDS011;11798;51.528;7.240;2023-02-28T10:50:34;4.30;;;2.23;;
23258;SDS011;11798;51.528;7.240;2023-02-28T10:55:35;2.87;;;1.77;;
23258;SDS011;11798;51.528;7.240;2023-02-28T10:58:01;2.60;;;1.93;;
23258;SDS011;11798;51.528;7.240;2023-02-28T11:00:32;3.43;;;2.30;;
23258;SDS011;11798;51.528;7.240;2023-02-28T11:02:59;2.70;;;1.90;;
23258;SDS011;11798;51.528;7.240;2023-02-28T11:07:57;2.73;;;2.07;;
23258;SDS011;11798;51.528;7.240;2023-02-28T11:10:31;6.17;;;3.03;;
23258;SDS011;11798;51.528;7.240;2023-02-28T11:12:59;7.03;;;1.90;;
23258;SDS011;11798;51.528;7.240;2023-02-28T11:15:27;2.77;;;1.80;;
23258;SDS011;11798;51.528;7.240;2023-02-28T11:20:27;3.13;;;1.80;;
23258;SDS011;11798;51.528;7.240;2023-02-28T11:22:55;3.20;;;2.00;;
23258;SDS011;11798;51.528;7.240;2023-02-28T11:25:28;3.10;;;2.27;;
23258;SDS011;11798;51.528;7.240;2023-02-28T11:28:02;2.47;;;1.80;;
23258;SDS011;11798;51.528;7.240;2023-02-28T11:35:49;3.10;;;2.10;;
23258;SDS011;11798;51.528;7.240;2023-02-28T11:38:16;3.23;;;2.20;;
23258;SDS011;11798;51.528;7.240;2023-02-28T11:51:47;3.50;;;2.17;;
23258;SDS011;11798;51.528;7.240;2023-02-28T11:57:32;3.37;;;2.40;;
23258;SDS011;11798;51.528;7.240;2023-02-28T12:05:31;2.63;;;2.27;;
23258;SDS011;11798;51.528;7.240;2023-02-28T12:11:17;2.53;;;2.33;;
23258;SDS011;11798;51.528;7.240;2023-02-28T12:26:54;3.30;;;2.67;;
23258;SDS011;11798;51.528;7.240;2023-02-28T12:29:29;4.47;;;2.83;;
23258;SDS011;11798;51.528;7.240;2023-02-28T12:32:16;3.10;;;2.80;;
23258;SDS011;11798;51.528;7.240;2023-02-28T12:34:45;4.60;;;2.90;;
23258;SDS011;11798;51.528;7.240;2023-02-28T12:37:17;3.90;;;2.93;;
23258;SDS011;11798;51.528;7.240;2023-02-28T12:40:12;4.87;;;3.10;;
23258;SDS011;11798;51.528;7.240;2023-02-28T12:42:42;4.33;;;3.07;;
23258;SDS011;11798;51.528;7.240;2023-02-28T12:45:49;3.27;;;2.80;;
23258;SDS011;11798;51.528;7.240;2023-02-28T12:48:25;3.43;;;2.67;;
23258;SDS011;11798;51.528;7.240;2023-02-28T12:50:56;3.90;;;3.10;;
23258;SDS011;11798;51.528;7.240;2023-02-28T12:58:38;4.40;;;3.27;;
23258;SDS011;11798;51.528;7.240;2023-02-28T13:06:17;3.67;;;3.33;;
23258;SDS011;11798;51.528;7.240;2023-02-28T13:11:33;5.20;;;3.50;;
23258;SDS011;11798;51.528;7.240;2023-02-28T13:14:27;4.43;;;3.23;;
23258;SDS011;11798;51.528;7.240;2023-02-28T13:19:35;4.10;;;3.67;;
23258;SDS011;11798;51.528;7.240;2023-02-28T13:22:03;4.10;;;3.37;;
23258;SDS011;11798;51.528;7.240;2023-02-28T13:29:34;4.20;;;3.20;;
23258;SDS011;11798;51.528;7.240;2023-02-28T13:34:31;4.57;;;3.20;;
23258;SDS011;11798;51.528;7.240;2023-02-28T13:37:43;5.97;;;3.00;;
23258;SDS011;11798;51.528;7.240;2023-02-28T13:47:40;5.13;;;3.57;;
23258;SDS011;11798;51.528;7.240;2023-02-28T13:50:50;3.90;;;3.20;;
23258;SDS011;11798;51.528;7.240;2023-02-28T14:07:20;3.70;;;3.27;;
23258;SDS011;11798;51.528;7.240;2023-02-28T14:09:55;4.77;;;3.53;;
23258;SDS011;11798;51.528;7.240;2023-02-28T14:15:40;5.37;;;4.00;;
23258;SDS011;11798;51.528;7.240;2023-02-28T14:21:04;4.83;;;3.53;;
23258;SDS011;11798;51.528;7.240;2023-02-28T14:26:22;4.83;;;3.33;;
23258;SDS011;11798;51.528;7.240;2023-02-28T14:34:30;4.57;;;3.80;;
23258;SDS011;11798;51.528;7.240;2023-02-28T14:37:27;4.13;;;3.50;;
23258;SDS011;11798;51.528;7.240;2023-02-28T14:39:55;5.77;;;3.50;;
23258;SDS011;11798;51.528;7.240;2023-02-28T14:42:34;6.93;;;3.87;;
23258;SDS011;11798;51.528;7.240;2023-02-28T14:45:03;5.70;;;4.17;;
23258;SDS011;11798;51.528;7.240;2023-02-28T14:47:33;6.40;;;3.70;;
23258;SDS011;11798;51.528;7.240;2023-02-28T14:50:01;5.07;;;3.53;;
23258;SDS011;11798;51.528;7.240;2023-02-28T14:52:29;3.60;;;3.30;;
23258;SDS011;11798;51.528;7.240;2023-02-28T14:55:03;5.37;;;3.20;;
23258;SDS011;11798;51.528;7.240;2023-02-28T14:57:39;7.83;;;3.27;;
23258;SDS011;11798;51.528;7.240;2023-02-28T15:00:12;5.30;;;4.10;;
23258;SDS011;11798;51.528;7.240;2023-02-28T15:02:41;4.90;;;3.63;;
23258;SDS011;11798;51.528;7.240;2023-02-28T15:07:45;5.73;;;3.80;;
23258;SDS011;11798;51.528;7.240;2023-02-28T15:10:15;5.07;;;3.70;;
23258;SDS011;11798;51.528;7.240;2023-02-28T15:12:48;4.07;;;3.60;;
23258;SDS011;11798;51.528;7.240;2023-02-28T15:15:18;4.07;;;3.50;;
23258;SDS011;11798;51.528;7.240;2023-02-28T15:17:46;5.60;;;3.83;;
23258;SDS011;11798;51.528;7.240;2023-02-28T15:20:17;4.83;;;3.50;;
23258;SDS011;11798;51.528;7.240;2023-02-28T15:22:43;3.87;;;3.40;;
23258;SDS011;11798;51.528;7.240;2023-02-28T15:25:13;6.47;;;4.13;;
23258;SDS011;11798;51.528;7.240;2023-02-28T15:27:45;5.90;;;3.60;;
23258;SDS011;11798;51.528;7.240;2023-02-28T15:30:15;5.73;;;4.00;;
23258;SDS011;11798;51.528;7.240;2023-02-28T15:35:36;5.10;;;3.43;;
23258;SDS011;11798;51.528;7.240;2023-02-28T15:38:22;7.30;;;3.87;;
23258;SDS011;11798;51.528;7.240;2023-02-28T15:40:53;5.93;;;3.70;;
23258;SDS011;11798;51.528;7.240;2023-02-28T15:45:59;7.40;;;3.73;;
23258;SDS011;11798;51.528;7.240;2023-02-28T15:48:33;7.07;;;4.07;;
23258;SDS011;11798;51.528;7.240;2023-02-28T15:53:51;4.77;;;3.50;;
23258;SDS011;11798;51.528;7.240;2023-02-28T15:56:29;6.57;;;3.67;;
23258;SDS011;11798;51.528;7.240;2023-02-28T15:59:02;5.13;;;3.80;;
23258;SDS011;11798;51.528;7.240;2023-02-28T16:01:34;7.87;;;4.23;;
23258;SDS011;11798;51.528;7.240;2023-02-28T16:04:05;4.30;;;3.83;;
23258;SDS011;11798;51.528;7.240;2023-02-28T16:06:43;6.03;;;3.83;;
23258;SDS011;11798;51.528;7.240;2023-02-28T16:09:26;5.10;;;3.50;;
23258;SDS011;11798;51.528;7.240;2023-02-28T16:11:53;7.33;;;3.90;;
23258;SDS011;11798;51.528;7.240;2023-02-28T16:14:21;6.07;;;3.77;;
23258;SDS011;11798;51.528;7.240;2023-02-28T16:16:51;4.20;;;3.80;;
23258;SDS011;11798;51.528;7.240;2023-02-28T16:19:22;4.27;;;3.23;;
23258;SDS011;11798;51.528;7.240;2023-02-28T16:21:48;6.00;;;3.57;;
23258;SDS011;11798;51.528;7.240;2023-02-28T16:24:14;4.37;;;3.17;;
23258;SDS011;11798;51.528;7.240;2023-02-28T16:26:40;5.60;;;3.27;;
23258;SDS011;11798;51.528;7.240;2023-02-28T16:29:11;6.10;;;3.80;;
23258;SDS011;11798;51.528;7.240;2023-02-28T16:31:43;5.83;;;3.90;;
23258;SDS011;11798;51.528;7.240;2023-02-28T16:34:09;4.60;;;3.27;;
23258;SDS011;11798;51.528;7.240;2023-02-28T16:36:34;5.53;;;3.70;;
23258;SDS011;11798;51.528;7.240;2023-02-28T16:39:00;4.13;;;3.43;;
23258;SDS011;11798;51.528;7.240;2023-02-28T16:41:27;5.17;;;3.30;;
23258;SDS011;11798;51.528;7.240;2023-02-28T16:43:54;4.43;;;3.30;;
23258;SDS011;11798;51.528;7.240;2023-02-28T16:46:25;5.40;;;3.73;;
23258;SDS011;11798;51.528;7.240;2023-02-28T16:48:55;6.13;;;3.33;;
23258;SDS011;11798;51.528;7.240;2023-02-28T16:51:21;5.63;;;3.90;;
23258;SDS011;11798;51.528;7.240;2023-02-28T16:53:47;5.77;;;3.90;;
23258;SDS011;11798;51.528;7.240;2023-02-28T16:56:17;7.20;;;4.60;;
23258;SDS011;11798;51.528;7.240;2023-02-28T16:58:50;5.13;;;3.77;;
23258;SDS011;11798;51.528;7.240;2023-02-28T17:01:17;6.50;;;4.03;;
23258;SDS011;11798;51.528;7.240;2023-02-28T17:03:46;7.97;;;4.13;;
23258;SDS011;11798;51.528;7.240;2023-02-28T17:06:17;5.20;;;3.50;;
23258;SDS011;11798;51.528;7.240;2023-02-28T17:08:44;4.87;;;3.70;;
23258;SDS011;11798;51.528;7.240;2023-02-28T17:11:11;6.93;;;3.77;;
23258;SDS011;11798;51.528;7.240;2023-02-28T17:13:36;6.83;;;3.70;;
23258;SDS011;11798;51.528;7.240;2023-02-28T17:16:02;5.63;;;4.00;;
23258;SDS011;11798;51.528;7.240;2023-02-28T17:18:28;5.67;;;4.07;;
23258;SDS011;11798;51.528;7.240;2023-02-28T17:20:58;6.87;;;3.83;;
23258;SDS011;11798;51.528;7.240;2023-02-28T17:23:24;6.97;;;4.00;;
23258;SDS011;11798;51.528;7.240;2023-02-28T17:25:50;5.40;;;3.70;;
23258;SDS011;11798;51.528;7.240;2023-02-28T17:28:20;9.70;;;4.30;;
23258;SDS011;11798;51.528;7.240;2023-02-28T17:30:46;4.17;;;3.70;;
23258;SDS011;11798;51.528;7.240;2023-02-28T17:33:13;6.30;;;4.47;;
23258;SDS011;11798;51.528;7.240;2023-02-28T17:35:39;5.47;;;3.90;;
23258;SDS011;11798;51.528;7.240;2023-02-28T17:38:07;7.97;;;4.30;;
23258;SDS011;11798;51.528;7.240;2023-02-28T17:40:41;5.20;;;3.97;;
23258;SDS011;11798;51.528;7.240;2023-02-28T17:43:06;8.57;;;4.40;;
23258;SDS011;11798;51.528;7.240;2023-02-28T17:45:32;7.03;;;5.23;;
23258;SDS011;11798;51.528;7.240;2023-02-28T17:48:00;6.10;;;3.93;;
23258;SDS011;11798;51.528;7.240;2023-02-28T17:50:26;6.33;;;4.43;;
23258;SDS011;11798;51.528;7.240;2023-02-28T17:52:52;7.87;;;4.80;;
23258;SDS011;11798;51.528;7.240;2023-02-28T17:55:17;9.93;;;5.47;;
23258;SDS011;11798;51.528;7.240;2023-02-28T17:57:46;7.23;;;4.70;;
23258;SDS011;11798;51.528;7.240;2023-02-28T18:00:12;5.63;;;4.60;;
23258;SDS011;11798;51.528;7.240;2023-02-28T18:02:40;8.60;;;5.23;;
23258;SDS011;11798;51.528;7.240;2023-02-28T18:05:07;18.93;;;7.93;;